Time,TemperatureF,DewpointF,PressureIn,WindDirection,WindDirectionDegrees,WindSpeedMPH,WindSpeedGustMPH,Humidity,HourlyPrecipIn,Conditions,Clouds,dailyrainin,SoftwareType,DateUTC
2013-08-29 00:03:00,73.6,68.7,29.98,SSE,158,0.0,0.0,85,0.00,,,0.00,meteohub,2013-08-29 05:03:00,
2013-08-29 00:08:00,73.6,68.7,29.98,SSE,158,0.0,0.0,85,0.00,,,0.00,meteohub,2013-08-29 05:08:00,
2013-08-29 00:13:00,73.2,68.7,29.99,South,180,0.0,0.0,86,0.00,,,0.00,meteohub,2013-08-29 05:13:00,
2013-08-29 00:18:00,73.2,68.7,29.99,SSW,203,0.0,0.0,86,0.00,,,0.00,meteohub,2013-08-29 05:18:00,
2013-08-29 00:23:00,73.0,68.5,29.99,SE,135,0.0,0.0,86,0.00,,,0.00,meteohub,2013-08-29 05:23:00,
2013-08-29 00:28:00,72.9,68.4,29.99,SE,135,0.0,0.0,86,0.00,,,0.00,meteohub,2013-08-29 05:28:00,
2013-08-29 00:33:00,72.7,68.2,29.99,SE,135,0.0,0.0,86,0.00,,,0.00,meteohub,2013-08-29 05:33:00,
2013-08-29 00:38:00,72.7,68.2,29.99,SW,225,0.0,0.0,86,0.00,,,0.00,meteohub,2013-08-29 05:38:00,
2013-08-29 00:43:00,72.5,68.0,29.99,East,90,0.0,0.0,86,0.00,,,0.00,meteohub,2013-08-29 05:43:00,
2013-08-29 00:48:00,72.5,68.0,29.99,ENE,68,0.0,0.0,86,0.00,,,0.00,meteohub,2013-08-29 05:48:00,
2013-08-29 00:53:00,72.3,68.2,29.99,ESE,113,0.0,0.0,87,0.00,,,0.00,meteohub,2013-08-29 05:53:00,
2013-08-29 00:58:00,72.3,68.2,29.99,WSW,248,0.0,0.0,87,0.00,,,0.00,meteohub,2013-08-29 05:58:00,
2013-08-29 01:03:00,72.5,68.4,29.99,WSW,248,0.0,0.0,87,0.00,,,0.00,meteohub,2013-08-29 06:03:00,
2013-08-29 01:08:00,72.1,68.0,30.00,SW,225,0.0,0.0,87,0.00,,,0.00,meteohub,2013-08-29 06:08:00,
2013-08-29 01:13:00,72.1,68.0,30.00,ESE,113,0.0,0.0,87,0.00,,,0.00,meteohub,2013-08-29 06:13:00,
2013-08-29 01:18:00,72.0,67.8,30.00,ESE,113,0.0,0.0,87,0.00,,,0.00,meteohub,2013-08-29 06:18:00,
2013-08-29 01:23:00,71.8,68.0,30.00,ENE,68,0.0,0.0,88,0.00,,,0.00,meteohub,2013-08-29 06:23:00,
2013-08-29 01:28:00,72.0,68.2,30.00,ENE,68,0.0,0.0,88,0.00,,,0.00,meteohub,2013-08-29 06:28:00,
2013-08-29 01:33:00,71.8,68.0,29.99,SSE,158,0.0,0.0,88,0.00,,,0.00,meteohub,2013-08-29 06:33:00,
2013-08-29 01:38:00,71.8,68.0,29.99,South,180,0.0,0.0,88,0.00,,,0.00,meteohub,2013-08-29 06:38:00,
2013-08-29 01:43:00,71.6,67.8,29.99,South,180,0.0,0.0,88,0.00,,,0.00,meteohub,2013-08-29 06:43:00,
2013-08-29 01:48:00,71.8,68.0,29.99,South,180,0.0,0.0,88,0.00,,,0.00,meteohub,2013-08-29 06:48:00,
2013-08-29 01:53:00,71.6,67.8,29.99,South,180,0.0,0.0,88,0.00,,,0.00,meteohub,2013-08-29 06:53:00,
2013-08-29 01:58:00,71.4,67.6,29.99,SSW,203,0.0,0.0,88,0.00,,,0.00,meteohub,2013-08-29 06:58:00,
2013-08-29 02:03:00,71.4,67.6,29.99,ESE,113,0.0,0.0,88,0.00,,,0.00,meteohub,2013-08-29 07:03:00,
2013-08-29 02:08:00,71.2,67.5,29.99,ESE,113,0.0,0.0,88,0.00,,,0.00,meteohub,2013-08-29 07:08:00,
2013-08-29 02:13:00,71.4,67.6,29.99,South,180,0.0,0.0,88,0.00,,,0.00,meteohub,2013-08-29 07:13:00,
2013-08-29 02:18:00,71.1,67.3,29.99,South,180,0.0,0.0,88,0.00,,,0.00,meteohub,2013-08-29 07:18:00,
2013-08-29 02:23:00,70.9,67.1,29.99,South,180,0.0,0.0,88,0.00,,,0.00,meteohub,2013-08-29 07:23:00,
2013-08-29 02:28:00,70.9,67.1,29.99,ESE,113,0.0,0.0,88,0.00,,,0.00,meteohub,2013-08-29 07:28:00,
2013-08-29 02:33:00,70.9,67.1,29.99,SSW,203,0.0,0.0,88,0.00,,,0.00,meteohub,2013-08-29 07:33:00,
2013-08-29 02:38:00,70.7,66.9,29.99,SSW,203,0.0,0.0,88,0.00,,,0.00,meteohub,2013-08-29 07:38:00,
2013-08-29 02:43:00,70.5,66.7,29.99,SSW,203,0.0,0.0,88,0.00,,,0.00,meteohub,2013-08-29 07:43:00,
2013-08-29 02:48:00,70.7,66.9,29.99,SSW,203,0.0,0.0,88,0.00,,,0.00,meteohub,2013-08-29 07:48:00,
2013-08-29 02:53:00,70.7,66.9,30.00,SSW,203,0.0,0.0,88,0.00,,,0.00,meteohub,2013-08-29 07:53:00,
2013-08-29 02:58:00,70.5,67.1,30.00,SSW,203,0.0,0.0,89,0.00,,,0.00,meteohub,2013-08-29 07:58:00,
2013-08-29 03:03:00,70.5,67.1,30.00,WSW,248,0.0,0.0,89,0.00,,,0.00,meteohub,2013-08-29 08:03:00,
2013-08-29 03:09:00,70.3,66.9,30.00,SW,225,0.0,0.0,89,0.00,,,0.00,meteohub,2013-08-29 08:09:00,
2013-08-29 03:14:00,70.2,66.7,29.99,SW,225,0.0,0.0,89,0.00,,,0.00,meteohub,2013-08-29 08:14:00,
2013-08-29 03:19:00,70.3,66.9,29.99,WSW,248,0.0,0.0,89,0.00,,,0.00,meteohub,2013-08-29 08:19:00,
2013-08-29 03:24:00,70.2,66.7,29.99,SE,135,0.0,0.0,89,0.00,,,0.00,meteohub,2013-08-29 08:24:00,
2013-08-29 03:29:00,70.0,66.2,29.99,ESE,113,0.0,0.0,88,0.00,,,0.00,meteohub,2013-08-29 08:29:00,
2013-08-29 03:34:00,70.0,66.2,29.99,South,180,0.0,0.0,88,0.00,,,0.00,meteohub,2013-08-29 08:34:00,
2013-08-29 03:39:00,69.8,66.0,30.00,South,180,0.0,0.0,88,0.00,,,0.00,meteohub,2013-08-29 08:39:00,
2013-08-29 03:44:00,69.8,66.4,30.00,South,180,0.0,0.0,89,0.00,,,0.00,meteohub,2013-08-29 08:44:00,
2013-08-29 03:49:00,69.6,66.2,30.00,South,180,0.0,0.0,89,0.00,,,0.00,meteohub,2013-08-29 08:49:00,
2013-08-29 03:54:00,69.6,66.2,29.99,SE,135,0.0,0.0,89,0.00,,,0.00,meteohub,2013-08-29 08:54:00,
2013-08-29 03:59:00,69.4,66.0,29.99,SW,225,0.0,0.0,89,0.00,,,0.00,meteohub,2013-08-29 08:59:00,
2013-08-29 04:04:00,69.4,66.0,29.99,SW,225,0.0,0.0,89,0.00,,,0.00,meteohub,2013-08-29 09:04:00,
2013-08-29 04:09:00,69.4,66.0,29.99,SW,225,0.0,0.0,89,0.00,,,0.00,meteohub,2013-08-29 09:09:00,
2013-08-29 04:14:00,69.3,65.8,29.99,SW,225,0.0,0.0,89,0.00,,,0.00,meteohub,2013-08-29 09:14:00,
2013-08-29 04:19:00,69.3,65.8,29.99,SW,225,0.0,0.0,89,0.00,,,0.00,meteohub,2013-08-29 09:19:00,
2013-08-29 04:24:00,69.3,65.8,29.99,ESE,113,0.0,0.0,89,0.00,,,0.00,meteohub,2013-08-29 09:24:00,
2013-08-29 04:29:00,69.3,66.2,29.99,SSE,158,0.0,0.0,90,0.00,,,0.00,meteohub,2013-08-29 09:29:00,
2013-08-29 04:34:00,69.3,66.2,30.00,SSW,203,0.0,0.0,90,0.00,,,0.00,meteohub,2013-08-29 09:34:00,
2013-08-29 04:39:00,69.1,66.0,30.00,ESE,113,0.0,0.0,90,0.00,,,0.00,meteohub,2013-08-29 09:39:00,
2013-08-29 04:44:00,69.3,66.2,30.00,ESE,113,0.0,0.0,90,0.00,,,0.00,meteohub,2013-08-29 09:44:00,
2013-08-29 04:49:00,69.3,66.2,29.99,SW,225,0.0,0.0,90,0.00,,,0.00,meteohub,2013-08-29 09:49:00,
2013-08-29 04:54:00,69.1,66.0,29.99,West,270,0.0,0.0,90,0.00,,,0.00,meteohub,2013-08-29 09:54:00,
2013-08-29 04:59:00,68.9,65.5,29.99,West,270,0.0,0.0,89,0.00,,,0.00,meteohub,2013-08-29 09:59:00,
2013-08-29 05:04:00,68.9,65.5,29.99,West,270,0.0,0.0,89,0.00,,,0.00,meteohub,2013-08-29 10:04:00,
2013-08-29 05:09:00,68.7,65.3,29.99,WSW,248,0.0,0.0,89,0.00,,,0.00,meteohub,2013-08-29 10:09:00,
2013-08-29 05:14:00,68.7,65.3,30.00,SE,135,0.0,0.0,89,0.00,,,0.00,meteohub,2013-08-29 10:14:00,
2013-08-29 05:19:00,68.7,65.3,30.00,ESE,113,0.0,0.0,89,0.00,,,0.00,meteohub,2013-08-29 10:19:00,
2013-08-29 05:24:00,68.7,65.3,30.00,ESE,113,0.0,0.0,89,0.00,,,0.00,meteohub,2013-08-29 10:24:00,
2013-08-29 05:29:00,68.5,65.5,30.00,West,270,0.0,0.0,90,0.00,,,0.00,meteohub,2013-08-29 10:29:00,
2013-08-29 05:34:00,68.5,65.5,30.00,West,270,0.0,0.0,90,0.00,,,0.00,meteohub,2013-08-29 10:34:00,
2013-08-29 05:39:00,68.5,65.5,30.00,West,270,0.0,0.0,90,0.00,,,0.00,meteohub,2013-08-29 10:39:00,
2013-08-29 05:44:00,68.5,65.5,30.00,SSE,158,0.0,0.0,90,0.00,,,0.00,meteohub,2013-08-29 10:44:00,
2013-08-29 05:49:00,68.5,65.5,30.00,SSE,158,0.0,0.0,90,0.00,,,0.00,meteohub,2013-08-29 10:49:00,
2013-08-29 05:54:00,68.5,65.5,30.00,SW,225,0.0,0.0,90,0.00,,,0.00,meteohub,2013-08-29 10:54:00,
2013-08-29 05:59:00,68.5,65.5,30.00,SW,225,0.0,0.0,90,0.00,,,0.00,meteohub,2013-08-29 10:59:00,
2013-08-29 06:04:00,68.5,65.5,30.00,ESE,113,0.0,0.0,90,0.00,,,0.00,meteohub,2013-08-29 11:04:00,
2013-08-29 06:09:00,68.5,65.5,30.01,SE,135,0.0,0.0,90,0.00,,,0.00,meteohub,2013-08-29 11:09:00,
2013-08-29 06:15:00,68.5,65.5,30.01,SSE,158,0.0,0.0,90,0.00,,,0.00,meteohub,2013-08-29 11:15:00,
2013-08-29 06:19:00,68.5,65.5,30.01,ESE,113,0.0,0.0,90,0.00,,,0.00,meteohub,2013-08-29 11:19:00,
2013-08-29 06:24:00,68.5,65.5,30.01,South,180,0.0,0.0,90,0.00,,,0.00,meteohub,2013-08-29 11:24:00,
2013-08-29 06:30:00,68.4,65.3,30.01,SSW,203,0.0,0.0,90,0.00,,,0.00,meteohub,2013-08-29 11:30:00,
2013-08-29 06:35:00,68.2,65.1,30.01,SSE,158,0.0,0.0,90,0.00,,,0.00,meteohub,2013-08-29 11:35:00,
2013-08-29 06:40:00,68.2,65.1,30.01,SSE,158,0.0,0.0,90,0.00,,,0.00,meteohub,2013-08-29 11:40:00,
2013-08-29 06:45:00,68.0,64.9,30.01,SE,135,0.0,0.0,90,0.00,,,0.00,meteohub,2013-08-29 11:45:00,
2013-08-29 06:50:00,68.2,65.1,30.01,SE,135,0.0,0.0,90,0.00,,,0.00,meteohub,2013-08-29 11:50:00,
2013-08-29 06:55:00,68.0,64.9,30.01,South,180,0.0,0.0,90,0.00,,,0.00,meteohub,2013-08-29 11:55:00,
2013-08-29 07:00:00,68.0,64.9,30.01,SW,225,0.0,0.0,90,0.00,,,0.00,meteohub,2013-08-29 12:00:00,
2013-08-29 07:05:00,67.8,64.8,30.02,South,180,0.0,0.0,90,0.00,,,0.00,meteohub,2013-08-29 12:05:00,
2013-08-29 07:10:00,67.8,64.8,30.02,SW,225,0.0,0.0,90,0.00,,,0.00,meteohub,2013-08-29 12:10:00,
2013-08-29 07:15:00,67.8,64.8,30.02,SW,225,0.0,0.0,90,0.00,,,0.00,meteohub,2013-08-29 12:15:00,
2013-08-29 07:20:00,67.8,64.8,30.02,SSW,203,0.0,0.0,90,0.00,,,0.00,meteohub,2013-08-29 12:20:00,
2013-08-29 07:25:00,67.8,64.8,30.02,WNW,293,0.0,0.0,90,0.00,,,0.00,meteohub,2013-08-29 12:25:00,
2013-08-29 07:30:00,68.0,65.3,30.03,WNW,293,0.0,0.0,91,0.00,,,0.00,meteohub,2013-08-29 12:30:00,
2013-08-29 07:35:00,68.0,65.3,30.03,West,270,0.0,0.0,91,0.00,,,0.00,meteohub,2013-08-29 12:35:00,
2013-08-29 07:40:00,68.2,65.5,30.02,WSW,248,0.0,0.0,91,0.00,,,0.00,meteohub,2013-08-29 12:40:00,
2013-08-29 07:45:00,68.2,65.5,30.02,WNW,293,0.0,0.0,91,0.00,,,0.00,meteohub,2013-08-29 12:45:00,
2013-08-29 07:50:00,68.4,65.7,30.02,NW,315,0.0,0.0,91,0.00,,,0.00,meteohub,2013-08-29 12:50:00,
2013-08-29 07:55:00,68.7,66.0,30.02,West,270,0.0,0.0,91,0.00,,,0.00,meteohub,2013-08-29 12:55:00,
2013-08-29 08:00:00,68.9,66.2,30.02,SSW,203,0.0,0.0,91,0.00,,,0.00,meteohub,2013-08-29 13:00:00,
2013-08-29 08:05:00,69.3,66.6,30.01,NW,315,0.0,0.0,91,0.00,,,0.00,meteohub,2013-08-29 13:05:00,
2013-08-29 08:10:00,69.4,66.7,30.02,NW,315,0.0,0.0,91,0.00,,,0.00,meteohub,2013-08-29 13:10:00,
2013-08-29 08:15:00,69.8,67.3,30.02,NW,315,0.0,0.0,92,0.00,,,0.00,meteohub,2013-08-29 13:15:00,
2013-08-29 08:20:00,70.2,67.6,30.02,South,180,0.0,0.0,92,0.00,,,0.00,meteohub,2013-08-29 13:20:00,
2013-08-29 08:25:00,70.7,68.2,30.02,South,180,0.0,0.0,92,0.00,,,0.00,meteohub,2013-08-29 13:25:00,
2013-08-29 08:30:00,71.1,68.5,30.02,SSW,203,0.0,0.0,92,0.00,,,0.00,meteohub,2013-08-29 13:30:00,
2013-08-29 08:35:00,71.6,69.1,30.02,SE,135,0.0,0.0,92,0.00,,,0.00,meteohub,2013-08-29 13:35:00,
2013-08-29 08:40:00,72.0,69.8,30.02,SSW,203,0.0,0.0,93,0.00,,,0.00,meteohub,2013-08-29 13:40:00,
2013-08-29 08:45:00,72.5,70.3,30.02,South,180,0.0,0.0,93,0.00,,,0.00,meteohub,2013-08-29 13:45:00,
2013-08-29 08:50:00,72.9,70.3,30.02,ESE,113,0.0,0.0,92,0.00,,,0.00,meteohub,2013-08-29 13:50:00,
2013-08-29 08:55:00,73.8,71.2,30.02,NW,315,0.0,0.0,92,0.00,,,0.00,meteohub,2013-08-29 13:55:00,
2013-08-29 09:00:00,74.3,71.8,30.02,South,180,0.0,0.0,92,0.00,,,0.00,meteohub,2013-08-29 14:00:00,
2013-08-29 09:05:00,75.0,72.5,30.02,West,270,0.0,0.0,92,0.00,,,0.00,meteohub,2013-08-29 14:05:00,
2013-08-29 09:10:00,75.4,72.9,30.01,East,90,0.0,0.0,92,0.00,,,0.00,meteohub,2013-08-29 14:10:00,
2013-08-29 09:15:00,75.7,72.9,30.01,South,180,0.0,0.0,91,0.00,,,0.00,meteohub,2013-08-29 14:15:00,
2013-08-29 09:20:00,76.5,73.2,30.01,WSW,248,0.0,0.0,90,0.00,,,0.00,meteohub,2013-08-29 14:20:00,
2013-08-29 09:25:00,76.6,73.4,30.01,South,180,0.0,0.0,90,0.00,,,0.00,meteohub,2013-08-29 14:25:00,
2013-08-29 09:30:00,77.2,73.8,30.01,SSW,203,0.0,0.0,89,0.00,,,0.00,meteohub,2013-08-29 14:30:00,
2013-08-29 09:35:00,77.4,73.6,30.00,WSW,248,0.0,0.0,88,0.00,,,0.00,meteohub,2013-08-29 14:35:00,
2013-08-29 09:40:00,77.9,74.1,30.00,SW,225,0.0,0.0,88,0.00,,,0.00,meteohub,2013-08-29 14:40:00,
2013-08-29 09:45:00,78.3,74.1,30.00,South,180,0.0,0.0,87,0.00,,,0.00,meteohub,2013-08-29 14:45:00,
2013-08-29 09:50:00,78.6,74.5,30.01,WSW,248,0.0,0.0,87,0.00,,,0.00,meteohub,2013-08-29 14:50:00,
2013-08-29 09:55:00,78.8,74.3,30.01,North,0,0.0,0.0,86,0.00,,,0.00,meteohub,2013-08-29 14:55:00,
2013-08-29 10:00:00,79.0,74.1,30.01,SW,225,0.0,0.0,85,0.00,,,0.00,meteohub,2013-08-29 15:00:00,
2013-08-29 10:05:00,79.5,74.3,30.01,SW,225,0.0,0.0,84,0.00,,,0.00,meteohub,2013-08-29 15:05:00,
2013-08-29 10:10:00,79.9,74.3,30.01,SE,135,0.0,0.0,83,0.00,,,0.00,meteohub,2013-08-29 15:10:00,
2013-08-29 10:16:00,80.2,74.7,30.01,WSW,248,0.0,0.0,83,0.00,,,0.00,meteohub,2013-08-29 15:16:00,
2013-08-29 10:21:00,80.6,74.7,30.01,WSW,248,0.0,0.0,82,0.00,,,0.00,meteohub,2013-08-29 15:21:00,
2013-08-29 10:26:00,81.1,74.7,30.00,ESE,113,0.0,0.0,81,0.00,,,0.00,meteohub,2013-08-29 15:26:00,
2013-08-29 10:31:00,81.0,74.7,29.99,South,180,0.0,0.0,81,0.00,,,0.00,meteohub,2013-08-29 15:31:00,
2013-08-29 10:36:00,81.7,74.8,29.99,South,180,0.0,0.0,80,0.00,,,0.00,meteohub,2013-08-29 15:36:00,
2013-08-29 10:41:00,82.2,75.0,29.99,West,270,0.0,0.0,79,0.00,,,0.00,meteohub,2013-08-29 15:41:00,
2013-08-29 10:46:00,82.6,75.0,29.99,East,90,0.0,0.0,78,0.00,,,0.00,meteohub,2013-08-29 15:46:00,
2013-08-29 10:51:00,83.3,75.4,29.99,South,180,0.0,0.0,77,0.00,,,0.00,meteohub,2013-08-29 15:51:00,
2013-08-29 10:56:00,83.7,75.2,29.99,SW,225,0.0,0.0,76,0.00,,,0.00,meteohub,2013-08-29 15:56:00,
2013-08-29 11:01:00,83.7,74.8,29.99,SSW,203,0.0,0.0,75,0.00,,,0.00,meteohub,2013-08-29 16:01:00,
2013-08-29 11:06:00,83.7,74.5,29.99,SW,225,0.0,0.0,74,0.00,,,0.00,meteohub,2013-08-29 16:06:00,
2013-08-29 11:11:00,83.8,74.7,29.99,ESE,113,0.0,0.0,74,0.00,,,0.00,meteohub,2013-08-29 16:11:00,
2013-08-29 11:16:00,84.0,74.8,29.99,SE,135,0.0,0.0,74,0.00,,,0.00,meteohub,2013-08-29 16:16:00,
2013-08-29 11:21:00,84.2,75.0,29.99,West,270,0.0,0.0,74,0.00,,,0.00,meteohub,2013-08-29 16:21:00,
2013-08-29 11:26:00,84.4,75.2,29.99,SW,225,0.0,0.0,74,0.00,,,0.00,meteohub,2013-08-29 16:26:00,
2013-08-29 11:31:00,84.4,74.8,29.99,SSE,158,0.0,0.0,73,0.00,,,0.00,meteohub,2013-08-29 16:31:00,
2013-08-29 11:36:00,84.4,74.8,29.99,NW,315,0.0,0.0,73,0.00,,,0.00,meteohub,2013-08-29 16:36:00,
2013-08-29 11:41:00,84.6,75.0,29.99,SSE,158,0.0,0.0,73,0.00,,,0.00,meteohub,2013-08-29 16:41:00,
2013-08-29 11:46:00,84.6,75.0,29.99,South,180,0.0,0.0,73,0.00,,,0.00,meteohub,2013-08-29 16:46:00,
2013-08-29 11:51:00,84.7,75.2,29.98,South,180,0.0,0.0,73,0.00,,,0.00,meteohub,2013-08-29 16:51:00,
2013-08-29 11:56:00,84.9,74.8,29.98,NW,315,0.0,0.0,72,0.00,,,0.00,meteohub,2013-08-29 16:56:00,
2013-08-29 12:01:00,85.1,75.0,29.98,SW,225,0.0,0.0,72,0.00,,,0.00,meteohub,2013-08-29 17:01:00,
2013-08-29 12:06:00,85.1,75.0,29.98,SW,225,0.0,0.0,72,0.00,,,0.00,meteohub,2013-08-29 17:06:00,
2013-08-29 12:11:00,85.1,75.0,29.99,SW,225,0.0,0.0,72,0.00,,,0.00,meteohub,2013-08-29 17:11:00,
2013-08-29 12:16:00,85.5,75.0,29.98,SW,225,0.0,0.0,71,0.00,,,0.00,meteohub,2013-08-29 17:16:00,
2013-08-29 12:21:00,85.5,75.0,29.98,WNW,293,0.0,0.0,71,0.00,,,0.00,meteohub,2013-08-29 17:21:00,
2013-08-29 12:26:00,85.6,74.7,29.98,South,180,0.0,0.0,70,0.00,,,0.00,meteohub,2013-08-29 17:26:00,
2013-08-29 12:31:00,85.8,74.5,29.98,South,180,0.0,0.0,69,0.00,,,0.00,meteohub,2013-08-29 17:31:00,
2013-08-29 12:36:00,86.0,75.0,29.98,WSW,248,0.0,0.0,70,0.00,,,0.00,meteohub,2013-08-29 17:36:00,
2013-08-29 12:41:00,86.2,75.2,29.98,SSW,203,0.0,0.0,70,0.00,,,0.00,meteohub,2013-08-29 17:41:00,
2013-08-29 12:46:00,86.5,75.6,29.98,NW,315,0.0,0.0,70,0.00,,,0.00,meteohub,2013-08-29 17:46:00,
2013-08-29 12:51:00,86.4,75.4,29.98,SE,135,0.0,0.0,70,0.00,,,0.00,meteohub,2013-08-29 17:51:00,
2013-08-29 12:56:00,86.5,75.6,29.98,WSW,248,0.0,0.0,70,0.00,,,0.00,meteohub,2013-08-29 17:56:00,
2013-08-29 13:01:00,86.5,75.2,29.98,West,270,0.0,0.0,69,0.00,,,0.00,meteohub,2013-08-29 18:01:00,
2013-08-29 13:06:00,86.7,75.7,29.98,WNW,293,0.0,0.0,70,0.00,,,0.00,meteohub,2013-08-29 18:06:00,
2013-08-29 13:11:00,86.9,75.6,29.97,NW,315,0.0,0.0,69,0.00,,,0.00,meteohub,2013-08-29 18:11:00,
2013-08-29 13:17:00,86.7,75.4,29.97,South,180,0.0,0.0,69,0.00,,,0.00,meteohub,2013-08-29 18:17:00,
2013-08-29 13:22:00,87.1,75.7,29.97,SW,225,0.0,0.0,69,0.00,,,0.00,meteohub,2013-08-29 18:22:00,
2013-08-29 13:27:00,87.3,75.9,29.97,WSW,248,0.0,0.0,69,0.00,,,0.00,meteohub,2013-08-29 18:27:00,
2013-08-29 13:32:00,87.6,76.1,29.96,South,180,0.0,0.0,69,0.00,,,0.00,meteohub,2013-08-29 18:32:00,
2013-08-29 13:37:00,87.6,75.7,29.96,WSW,248,0.0,0.0,68,0.00,,,0.00,meteohub,2013-08-29 18:37:00,
2013-08-29 13:42:00,87.8,76.3,29.96,SSW,203,0.0,0.0,69,0.00,,,0.00,meteohub,2013-08-29 18:42:00,
2013-08-29 13:47:00,87.8,75.4,29.96,SE,135,0.0,0.0,67,0.00,,,0.00,meteohub,2013-08-29 18:47:00,
2013-08-29 13:52:00,88.0,76.1,29.96,ENE,68,0.0,0.0,68,0.00,,,0.00,meteohub,2013-08-29 18:52:00,
2013-08-29 13:57:00,88.0,76.1,29.96,WSW,248,0.0,0.0,68,0.00,,,0.00,meteohub,2013-08-29 18:57:00,
2013-08-29 14:02:00,88.2,75.7,29.96,West,270,0.0,0.0,67,0.00,,,0.00,meteohub,2013-08-29 19:02:00,
2013-08-29 14:07:00,88.3,75.9,29.96,South,180,0.0,0.0,67,0.00,,,0.00,meteohub,2013-08-29 19:07:00,
2013-08-29 14:12:00,88.7,75.9,29.95,WSW,248,0.0,0.0,66,0.00,,,0.00,meteohub,2013-08-29 19:12:00,
2013-08-29 14:17:00,88.9,76.1,29.95,WNW,293,0.0,0.0,66,0.00,,,0.00,meteohub,2013-08-29 19:17:00,
2013-08-29 14:22:00,89.2,76.5,29.95,South,180,0.0,0.0,66,0.00,,,0.00,meteohub,2013-08-29 19:22:00,
2013-08-29 14:27:00,89.4,76.1,29.95,SW,225,0.0,0.0,65,0.00,,,0.00,meteohub,2013-08-29 19:27:00,
2013-08-29 14:31:00,89.4,76.1,29.95,West,270,0.0,0.0,65,0.00,,,0.00,meteohub,2013-08-29 19:31:00,
2013-08-29 14:37:00,89.4,75.6,29.95,NW,315,0.0,0.0,64,0.00,,,0.00,meteohub,2013-08-29 19:37:00,
2013-08-29 14:42:00,89.2,75.4,29.95,WSW,248,0.0,0.0,64,0.00,,,0.00,meteohub,2013-08-29 19:42:00,
2013-08-29 14:47:00,89.1,75.2,29.95,ENE,68,0.0,0.0,64,0.00,,,0.00,meteohub,2013-08-29 19:47:00,
2013-08-29 14:52:00,89.1,75.7,29.94,SW,225,0.0,0.0,65,0.00,,,0.00,meteohub,2013-08-29 19:52:00,
2013-08-29 14:57:00,88.9,76.1,29.94,NW,315,0.0,0.0,66,0.00,,,0.00,meteohub,2013-08-29 19:57:00,
2013-08-29 15:02:00,89.1,75.7,29.94,WSW,248,0.0,0.0,65,0.00,,,0.00,meteohub,2013-08-29 20:02:00,
2013-08-29 15:07:00,89.1,75.7,29.94,WSW,248,0.0,0.0,65,0.00,,,0.00,meteohub,2013-08-29 20:07:00,
2013-08-29 15:12:00,89.1,75.7,29.94,WSW,248,0.0,0.0,65,0.00,,,0.00,meteohub,2013-08-29 20:12:00,
2013-08-29 15:17:00,89.8,76.5,29.93,West,270,0.0,0.0,65,0.00,,,0.00,meteohub,2013-08-29 20:17:00,
2013-08-29 15:22:00,90.0,76.1,29.93,West,270,0.0,0.0,64,0.00,,,0.00,meteohub,2013-08-29 20:22:00,
2013-08-29 15:27:00,90.1,76.3,29.93,SW,225,0.0,0.0,64,0.00,,,0.00,meteohub,2013-08-29 20:27:00,
2013-08-29 15:32:00,90.5,75.7,29.92,SW,225,0.0,0.0,62,0.00,,,0.00,meteohub,2013-08-29 20:32:00,
2013-08-29 15:37:00,90.5,75.7,29.92,SW,225,0.0,0.0,62,0.00,,,0.00,meteohub,2013-08-29 20:37:00,
2013-08-29 15:42:00,90.7,75.9,29.92,West,270,0.0,0.0,62,0.00,,,0.00,meteohub,2013-08-29 20:42:00,
2013-08-29 15:47:00,90.9,76.1,29.92,ENE,68,0.0,0.0,62,0.00,,,0.00,meteohub,2013-08-29 20:47:00,
2013-08-29 15:52:00,91.2,75.9,29.92,South,180,0.0,0.0,61,0.00,,,0.00,meteohub,2013-08-29 20:52:00,
2013-08-29 15:57:00,91.2,75.9,29.92,WSW,248,0.0,0.0,61,0.00,,,0.00,meteohub,2013-08-29 20:57:00,
2013-08-29 16:02:00,91.4,76.5,29.92,WNW,293,0.0,0.0,62,0.00,,,0.00,meteohub,2013-08-29 21:02:00,
2013-08-29 16:07:00,91.6,76.6,29.92,WSW,248,0.0,0.0,62,0.00,,,0.00,meteohub,2013-08-29 21:07:00,
2013-08-29 16:12:00,91.6,76.3,29.93,SSW,203,0.0,0.0,61,0.00,,,0.00,meteohub,2013-08-29 21:12:00,
2013-08-29 16:17:00,91.4,76.1,29.93,SSW,203,0.0,0.0,61,0.00,,,0.00,meteohub,2013-08-29 21:17:00,
2013-08-29 16:22:00,91.8,76.5,29.93,West,270,0.0,0.0,61,0.00,,,0.00,meteohub,2013-08-29 21:22:00,
2013-08-29 16:27:00,91.9,76.6,29.93,SW,225,0.0,0.0,61,0.00,,,0.00,meteohub,2013-08-29 21:27:00,
2013-08-29 16:32:00,91.8,76.5,29.91,West,270,0.0,0.0,61,0.00,,,0.00,meteohub,2013-08-29 21:32:00,
2013-08-29 16:37:00,91.9,76.6,29.91,West,270,0.0,0.0,61,0.00,,,0.00,meteohub,2013-08-29 21:37:00,
2013-08-29 16:42:00,92.5,76.6,29.91,West,270,0.0,0.0,60,0.00,,,0.00,meteohub,2013-08-29 21:42:00,
2013-08-29 16:47:00,92.5,77.0,29.91,South,180,0.0,0.0,61,0.00,,,0.00,meteohub,2013-08-29 21:47:00,
2013-08-29 16:52:00,92.7,76.8,29.93,West,270,0.0,0.0,60,0.00,,,0.00,meteohub,2013-08-29 21:52:00,
2013-08-29 16:57:00,92.7,76.3,29.93,NW,315,0.0,0.0,59,0.00,,,0.00,meteohub,2013-08-29 21:57:00,
2013-08-29 17:02:00,92.8,76.5,29.93,West,270,0.0,0.0,59,0.00,,,0.00,meteohub,2013-08-29 22:02:00,
2013-08-29 17:07:00,93.0,76.6,29.93,West,270,0.0,0.0,59,0.00,,,0.00,meteohub,2013-08-29 22:07:00,
2013-08-29 17:12:00,93.4,76.8,29.89,West,270,0.0,0.0,59,0.00,,,0.00,meteohub,2013-08-29 22:12:00,
2013-08-29 17:17:00,93.4,76.8,29.89,North,0,0.0,0.0,59,0.00,,,0.00,meteohub,2013-08-29 22:17:00,
2013-08-29 17:22:00,93.7,77.2,29.89,West,270,0.0,0.0,59,0.00,,,0.00,meteohub,2013-08-29 22:22:00,
2013-08-29 17:27:00,93.6,76.6,29.89,West,270,0.0,0.0,58,0.00,,,0.00,meteohub,2013-08-29 22:27:00,
2013-08-29 17:32:00,93.7,76.6,29.90,SW,225,0.0,0.0,58,0.00,,,0.00,meteohub,2013-08-29 22:32:00,
2013-08-29 17:37:00,93.9,76.3,29.90,WSW,248,0.0,0.0,57,0.00,,,0.00,meteohub,2013-08-29 22:37:00,
2013-08-29 17:42:00,93.7,76.3,29.90,West,270,0.0,0.0,57,0.00,,,0.00,meteohub,2013-08-29 22:42:00,
2013-08-29 17:47:00,93.9,76.3,29.90,NW,315,0.0,0.0,57,0.00,,,0.00,meteohub,2013-08-29 22:47:00,
2013-08-29 17:52:00,93.9,76.3,29.89,South,180,0.0,0.0,57,0.00,,,0.00,meteohub,2013-08-29 22:52:00,
2013-08-29 17:57:00,93.6,76.1,29.89,SW,225,0.0,0.0,57,0.00,,,0.00,meteohub,2013-08-29 22:57:00,
2013-08-29 18:02:00,93.7,76.3,29.89,SW,225,0.0,0.0,57,0.00,,,0.00,meteohub,2013-08-29 23:02:00,
2013-08-29 18:07:00,93.7,76.3,29.89,SW,225,0.0,0.0,57,0.00,,,0.00,meteohub,2013-08-29 23:07:00,
2013-08-29 18:12:00,93.7,76.3,29.89,SW,225,0.0,0.0,57,0.00,,,0.00,meteohub,2013-08-29 23:12:00,
2013-08-29 18:17:00,93.7,76.3,29.89,West,270,0.0,0.0,57,0.00,,,0.00,meteohub,2013-08-29 23:17:00,
2013-08-29 18:22:00,93.7,76.3,29.89,SW,225,0.0,0.0,57,0.00,,,0.00,meteohub,2013-08-29 23:22:00,
2013-08-29 18:27:00,93.4,76.5,29.89,NW,315,0.0,0.0,58,0.00,,,0.00,meteohub,2013-08-29 23:27:00,
2013-08-29 18:32:00,93.2,75.7,29.89,West,270,0.0,0.0,57,0.00,,,0.00,meteohub,2013-08-29 23:32:00,
2013-08-29 18:37:00,93.4,76.5,29.89,NW,315,0.0,0.0,58,0.00,,,0.00,meteohub,2013-08-29 23:37:00,
2013-08-29 18:42:00,93.4,75.9,29.89,WSW,248,0.0,0.0,57,0.00,,,0.00,meteohub,2013-08-29 23:42:00,
2013-08-29 18:47:00,93.2,76.6,29.89,WSW,248,0.0,0.0,59,0.00,,,0.00,meteohub,2013-08-29 23:47:00,
2013-08-29 18:52:00,92.8,76.8,29.89,SW,225,0.0,0.0,60,0.00,,,0.00,meteohub,2013-08-29 23:52:00,
2013-08-29 18:57:00,92.5,76.6,29.90,West,270,0.0,0.0,60,0.00,,,0.00,meteohub,2013-08-29 23:57:00,
2013-08-29 19:02:00,92.3,76.8,29.90,South,180,0.0,0.0,61,0.00,,,0.00,meteohub,2013-08-30 00:02:00,
2013-08-29 19:07:00,91.6,76.6,29.90,South,180,0.0,0.0,62,0.00,,,0.00,meteohub,2013-08-30 00:07:00,
2013-08-29 19:12:00,90.9,76.5,29.90,SW,225,0.0,0.0,63,0.00,,,0.00,meteohub,2013-08-30 00:12:00,
2013-08-29 19:17:00,90.5,76.6,29.90,ESE,113,0.0,0.0,64,0.00,,,0.00,meteohub,2013-08-30 00:17:00,
2013-08-29 19:22:00,89.8,76.8,29.91,SE,135,0.0,0.0,66,0.00,,,0.00,meteohub,2013-08-30 00:22:00,
2013-08-29 19:27:00,89.1,76.3,29.91,SE,135,0.0,0.0,66,0.00,,,0.00,meteohub,2013-08-30 00:27:00,
2013-08-29 19:32:00,88.3,75.6,29.90,SE,135,0.0,0.0,66,0.00,,,0.00,meteohub,2013-08-30 00:32:00,
2013-08-29 19:37:00,87.4,75.2,29.90,SE,135,0.0,0.0,67,0.00,,,0.00,meteohub,2013-08-30 00:37:00,
2013-08-29 19:42:00,87.1,75.2,29.90,SSE,158,0.0,0.0,68,0.00,,,0.00,meteohub,2013-08-30 00:42:00,
2013-08-29 19:47:00,86.7,75.4,29.90,South,180,0.0,0.0,69,0.00,,,0.00,meteohub,2013-08-30 00:47:00,
2013-08-29 19:52:00,85.8,74.5,29.92,SE,135,0.0,0.0,69,0.00,,,0.00,meteohub,2013-08-30 00:52:00,
2013-08-29 19:57:00,85.5,74.5,29.92,SE,135,0.0,0.0,70,0.00,,,0.00,meteohub,2013-08-30 00:57:00,
2013-08-29 20:02:00,84.9,74.5,29.92,SSE,158,0.0,0.0,71,0.00,,,0.00,meteohub,2013-08-30 01:02:00,
2013-08-29 20:07:00,84.6,74.1,29.92,SE,135,0.0,0.0,71,0.00,,,0.00,meteohub,2013-08-30 01:07:00,
2013-08-29 20:12:00,84.0,73.9,29.93,SE,135,0.0,0.0,72,0.00,,,0.00,meteohub,2013-08-30 01:12:00,
2013-08-29 20:17:00,83.7,74.1,29.93,SE,135,0.0,0.0,73,0.00,,,0.00,meteohub,2013-08-30 01:17:00,
2013-08-29 20:22:00,83.1,73.9,29.93,SE,135,0.0,0.0,74,0.00,,,0.00,meteohub,2013-08-30 01:22:00,
2013-08-29 20:27:00,82.8,73.9,29.93,SE,135,0.0,0.0,75,0.00,,,0.00,meteohub,2013-08-30 01:27:00,
2013-08-29 20:32:00,82.4,73.8,29.93,SE,135,0.0,0.0,75,0.00,,,0.00,meteohub,2013-08-30 01:32:00,
2013-08-29 20:37:00,82.2,73.6,29.93,SE,135,0.0,0.0,75,0.00,,,0.00,meteohub,2013-08-30 01:37:00,
2013-08-29 20:42:00,81.7,73.4,29.93,SE,135,0.0,0.0,76,0.00,,,0.00,meteohub,2013-08-30 01:42:00,
2013-08-29 20:47:00,81.5,73.2,29.93,SE,135,0.0,0.0,76,0.00,,,0.00,meteohub,2013-08-30 01:47:00,
2013-08-29 20:52:00,81.5,73.6,29.93,South,180,0.0,0.0,77,0.00,,,0.00,meteohub,2013-08-30 01:52:00,
2013-08-29 20:57:00,81.1,73.2,29.93,South,180,0.0,0.0,77,0.00,,,0.00,meteohub,2013-08-30 01:57:00,
2013-08-29 21:02:00,80.8,72.9,29.93,South,180,0.0,0.0,77,0.00,,,0.00,meteohub,2013-08-30 02:02:00,
2013-08-29 21:07:00,80.6,72.7,29.93,SSW,203,0.0,0.0,77,0.00,,,0.00,meteohub,2013-08-30 02:07:00,
2013-08-29 21:12:00,80.4,72.9,29.93,South,180,0.0,0.0,78,0.00,,,0.00,meteohub,2013-08-30 02:12:00,
2013-08-29 21:17:00,80.2,73.0,29.93,South,180,0.0,0.0,79,0.00,,,0.00,meteohub,2013-08-30 02:17:00,
2013-08-29 21:22:00,80.1,73.0,29.93,SE,135,0.0,0.0,79,0.00,,,0.00,meteohub,2013-08-30 02:22:00,
2013-08-29 21:27:00,79.7,72.7,29.93,SE,135,0.0,0.0,79,0.00,,,0.00,meteohub,2013-08-30 02:27:00,
2013-08-29 21:32:00,79.5,72.9,29.95,SW,225,0.0,0.0,80,0.00,,,0.00,meteohub,2013-08-30 02:32:00,
2013-08-29 21:37:00,79.5,72.9,29.95,SSW,203,0.0,0.0,80,0.00,,,0.00,meteohub,2013-08-30 02:37:00,
2013-08-29 21:42:00,79.3,72.7,29.95,South,180,0.0,0.0,80,0.00,,,0.00,meteohub,2013-08-30 02:42:00,
2013-08-29 21:47:00,79.3,72.7,29.95,South,180,0.0,0.0,80,0.00,,,0.00,meteohub,2013-08-30 02:47:00,
2013-08-29 21:52:00,79.0,72.7,29.94,South,180,0.0,0.0,81,0.00,,,0.00,meteohub,2013-08-30 02:52:00,
2013-08-29 21:57:00,78.8,72.9,29.94,South,180,0.0,0.0,82,0.00,,,0.00,meteohub,2013-08-30 02:57:00,
2013-08-29 22:02:00,78.8,72.9,29.94,South,180,0.0,0.0,82,0.00,,,0.00,meteohub,2013-08-30 03:02:00,
2013-08-29 22:07:00,78.6,72.7,29.94,South,180,0.0,0.0,82,0.00,,,0.00,meteohub,2013-08-30 03:07:00,
2013-08-29 22:12:00,78.6,72.7,29.94,SE,135,0.0,0.0,82,0.00,,,0.00,meteohub,2013-08-30 03:12:00,
2013-08-29 22:17:00,78.6,72.7,29.94,SE,135,0.0,0.0,82,0.00,,,0.00,meteohub,2013-08-30 03:17:00,
2013-08-29 22:22:00,78.3,72.7,29.95,SE,135,0.0,0.0,83,0.00,,,0.00,meteohub,2013-08-30 03:22:00,
2013-08-29 22:27:00,78.3,72.7,29.95,SE,135,0.0,0.0,83,0.00,,,0.00,meteohub,2013-08-30 03:27:00,
2013-08-29 22:32:00,78.3,72.7,29.94,South,180,0.0,0.0,83,0.00,,,0.00,meteohub,2013-08-30 03:32:00,
2013-08-29 22:37:00,78.1,72.9,29.94,South,180,0.0,0.0,84,0.00,,,0.00,meteohub,2013-08-30 03:37:00,
2013-08-29 22:42:00,77.9,72.7,29.94,West,270,0.0,0.0,84,0.00,,,0.00,meteohub,2013-08-30 03:42:00,
2013-08-29 22:47:00,77.7,72.1,29.94,SW,225,0.0,0.0,83,0.00,,,0.00,meteohub,2013-08-30 03:47:00,
2013-08-29 22:52:00,77.7,72.5,29.93,ESE,113,0.0,0.0,84,0.00,,,0.00,meteohub,2013-08-30 03:52:00,
2013-08-29 22:57:00,77.5,72.3,29.93,South,180,0.0,0.0,84,0.00,,,0.00,meteohub,2013-08-30 03:57:00,
2013-08-29 23:01:00,77.4,72.5,29.93,South,180,0.0,0.0,85,0.00,,,0.00,meteohub,2013-08-30 04:01:00,
2013-08-29 23:02:00,77.4,72.5,29.93,South,180,0.0,0.0,85,0.00,,,0.00,meteohub,2013-08-30 04:02:00,
2013-08-29 23:07:00,77.5,72.7,29.93,South,180,0.0,0.0,85,0.00,,,0.00,meteohub,2013-08-30 04:07:00,
2013-08-29 23:13:00,77.4,72.5,29.93,South,180,0.0,0.0,85,0.00,,,0.00,meteohub,2013-08-30 04:13:00,
2013-08-29 23:18:00,77.2,72.3,29.93,South,180,0.0,0.0,85,0.00,,,0.00,meteohub,2013-08-30 04:18:00,
2013-08-29 23:23:00,77.2,72.3,29.93,SE,135,0.0,0.0,85,0.00,,,0.00,meteohub,2013-08-30 04:23:00,
2013-08-29 23:28:00,77.0,72.1,29.93,South,180,0.0,0.0,85,0.00,,,0.00,meteohub,2013-08-30 04:28:00,
2013-08-29 23:33:00,77.0,72.1,29.93,South,180,0.0,0.0,85,0.00,,,0.00,meteohub,2013-08-30 04:33:00,
2013-08-29 23:38:00,76.8,72.0,29.93,South,180,0.0,0.0,85,0.00,,,0.00,meteohub,2013-08-30 04:38:00,
2013-08-29 23:43:00,76.8,72.0,29.93,South,180,0.0,0.0,85,0.00,,,0.00,meteohub,2013-08-30 04:43:00,
2013-08-29 23:48:00,76.6,72.1,29.93,South,180,0.0,0.0,86,0.00,,,0.00,meteohub,2013-08-30 04:48:00,
2013-08-29 23:53:00,76.8,72.3,29.93,South,180,0.0,0.0,86,0.00,,,0.00,meteohub,2013-08-30 04:53:00,
2013-08-29 23:58:00,76.6,72.1,29.93,South,180,0.0,0.0,86,0.00,,,0.00,meteohub,2013-08-30 04:58:00,